Time,TemperatureF,DewpointF,PressureIn,WindDirection,WindDirectionDegrees,WindSpeedMPH,WindSpeedGustMPH,Humidity,HourlyPrecipIn,Conditions,Clouds,dailyrainin,SoftwareType,DateUTC
2013-12-27 00:02:00,50.0,28.9,30.14,East,90,3.0,4.0,44,0.00,,,0.00,meteohub,2013-12-27 08:02:00,
2013-12-27 00:08:00,49.5,28.9,30.14,SE,135,2.0,4.0,45,0.00,,,0.00,meteohub,2013-12-27 08:08:00,
2013-12-27 00:13:00,49.3,29.3,30.14,East,90,4.0,4.0,46,0.00,,,0.00,meteohub,2013-12-27 08:13:00,
2013-12-27 00:18:00,49.3,28.8,30.14,East,90,2.0,4.0,45,0.00,,,0.00,meteohub,2013-12-27 08:18:00,
2013-12-27 00:22:00,48.7,28.4,30.14,East,90,0.0,4.0,45,0.00,,,0.00,meteohub,2013-12-27 08:22:00,
2013-12-27 00:27:00,47.7,28.9,30.14,East,90,2.0,4.0,48,0.00,,,0.00,meteohub,2013-12-27 08:27:00,
2013-12-27 00:32:00,47.5,29.8,30.13,East,90,2.0,3.0,50,0.00,,,0.00,meteohub,2013-12-27 08:32:00,
2013-12-27 00:38:00,47.7,29.5,30.13,East,90,2.0,3.0,49,0.00,,,0.00,meteohub,2013-12-27 08:38:00,
2013-12-27 00:43:00,48.0,29.3,30.13,East,90,3.0,3.0,48,0.00,,,0.00,meteohub,2013-12-27 08:43:00,
2013-12-27 00:48:00,48.7,29.5,30.13,East,90,2.0,4.0,47,0.00,,,0.00,meteohub,2013-12-27 08:48:00,
2013-12-27 00:53:00,48.9,29.7,30.13,East,90,4.0,4.0,47,0.00,,,0.00,meteohub,2013-12-27 08:53:00,
2013-12-27 00:58:00,48.9,29.7,30.13,East,90,4.0,4.0,47,0.00,,,0.00,meteohub,2013-12-27 08:58:00,
2013-12-27 01:03:00,49.1,30.2,30.12,ESE,113,3.0,4.0,48,0.00,,,0.00,meteohub,2013-12-27 09:03:00,
2013-12-27 01:08:00,48.9,30.0,30.12,East,90,4.0,4.0,48,0.00,,,0.00,meteohub,2013-12-27 09:08:00,
2013-12-27 01:13:00,48.7,29.8,30.13,East,90,5.0,5.0,48,0.00,,,0.00,meteohub,2013-12-27 09:13:00,
2013-12-27 01:18:00,48.2,30.9,30.13,East,90,3.0,5.0,51,0.00,,,0.00,meteohub,2013-12-27 09:18:00,
2013-12-27 01:23:00,47.3,30.0,30.13,NE,45,2.0,5.0,51,0.00,,,0.00,meteohub,2013-12-27 09:23:00,
2013-12-27 01:28:00,47.1,30.9,30.12,SE,135,3.0,5.0,53,0.00,,,0.00,meteohub,2013-12-27 09:28:00,
2013-12-27 01:33:00,47.8,30.6,30.12,ENE,68,6.0,6.0,51,0.00,,,0.00,meteohub,2013-12-27 09:33:00,
2013-12-27 01:38:00,48.6,29.8,30.12,East,90,4.0,6.0,48,0.00,,,0.00,meteohub,2013-12-27 09:38:00,
2013-12-27 01:43:00,48.4,29.1,30.12,NE,45,0.0,6.0,47,0.00,,,0.00,meteohub,2013-12-27 09:43:00,
2013-12-27 01:48:00,48.0,28.8,30.12,South,180,3.0,6.0,47,0.00,,,0.00,meteohub,2013-12-27 09:48:00,
2013-12-27 01:53:00,47.8,28.6,30.13,East,90,2.0,5.0,47,0.00,,,0.00,meteohub,2013-12-27 09:53:00,
2013-12-27 01:58:00,48.0,28.2,30.13,NE,45,1.0,4.0,46,0.00,,,0.00,meteohub,2013-12-27 09:58:00,
2013-12-27 02:03:00,48.2,28.4,30.13,WNW,293,7.0,7.0,46,0.00,,,0.00,meteohub,2013-12-27 10:03:00,
2013-12-27 02:08:00,48.2,27.9,30.13,WNW,293,6.0,7.0,45,0.00,,,0.00,meteohub,2013-12-27 10:08:00,
2013-12-27 02:13:00,47.8,28.0,30.14,NW,315,3.0,7.0,46,0.00,,,0.00,meteohub,2013-12-27 10:13:00,
2013-12-27 02:18:00,47.8,28.0,30.14,NW,315,2.0,7.0,46,0.00,,,0.00,meteohub,2013-12-27 10:18:00,
2013-12-27 02:23:00,47.5,27.7,30.13,NW,315,2.0,6.0,46,0.00,,,0.00,meteohub,2013-12-27 10:23:00,
2013-12-27 02:28:00,47.3,28.6,30.13,NW,315,1.0,4.0,48,0.00,,,0.00,meteohub,2013-12-27 10:28:00,
2013-12-27 02:33:00,46.9,29.3,30.13,South,180,2.0,2.0,50,0.00,,,0.00,meteohub,2013-12-27 10:33:00,
2013-12-27 02:38:00,46.9,29.3,30.13,South,180,1.0,3.0,50,0.00,,,0.00,meteohub,2013-12-27 10:38:00,
2013-12-27 02:43:00,46.4,29.3,30.13,South,180,1.0,3.0,51,0.00,,,0.00,meteohub,2013-12-27 10:43:00,
2013-12-27 02:48:00,46.0,30.7,30.13,South,180,2.0,3.0,55,0.00,,,0.00,meteohub,2013-12-27 10:48:00,
2013-12-27 02:53:00,45.9,30.2,30.13,East,90,4.0,4.0,54,0.00,,,0.00,meteohub,2013-12-27 10:53:00,
2013-12-27 02:58:00,45.3,29.1,30.13,East,90,3.0,4.0,53,0.00,,,0.00,meteohub,2013-12-27 10:58:00,
2013-12-27 03:03:00,44.8,28.2,30.13,East,90,2.0,4.0,52,0.00,,,0.00,meteohub,2013-12-27 11:03:00,
2013-12-27 03:08:00,44.4,27.9,30.13,East,90,1.0,4.0,52,0.00,,,0.00,meteohub,2013-12-27 11:08:00,
2013-12-27 03:13:00,44.1,28.4,30.13,East,90,1.0,4.0,54,0.00,,,0.00,meteohub,2013-12-27 11:13:00,
2013-12-27 03:18:00,44.2,29.5,30.13,South,180,0.0,3.0,56,0.00,,,0.00,meteohub,2013-12-27 11:18:00,
2013-12-27 03:23:00,44.4,29.7,30.12,South,180,1.0,2.0,56,0.00,,,0.00,meteohub,2013-12-27 11:23:00,
2013-12-27 03:28:00,44.8,30.0,30.12,East,90,3.0,3.0,56,0.00,,,0.00,meteohub,2013-12-27 11:28:00,
2013-12-27 03:33:00,45.0,29.8,30.12,East,90,2.0,3.0,55,0.00,,,0.00,meteohub,2013-12-27 11:33:00,
2013-12-27 03:38:00,45.1,29.5,30.12,East,90,3.0,3.0,54,0.00,,,0.00,meteohub,2013-12-27 11:38:00,
2013-12-27 03:43:00,45.1,28.9,30.12,East,90,2.0,4.0,53,0.00,,,0.00,meteohub,2013-12-27 11:43:00,
2013-12-27 03:48:00,44.6,29.5,30.12,NE,45,3.0,4.0,55,0.00,,,0.00,meteohub,2013-12-27 11:48:00,
2013-12-27 03:53:00,44.1,29.3,30.12,South,180,2.0,4.0,56,0.00,,,0.00,meteohub,2013-12-27 11:53:00,
2013-12-27 03:58:00,43.9,29.7,30.12,NE,45,2.0,4.0,57,0.00,,,0.00,meteohub,2013-12-27 11:58:00,
2013-12-27 04:03:00,43.7,29.8,30.12,SE,135,3.0,3.0,58,0.00,,,0.00,meteohub,2013-12-27 12:03:00,
2013-12-27 04:08:00,43.9,30.6,30.12,SE,135,4.0,4.0,59,0.00,,,0.00,meteohub,2013-12-27 12:08:00,
2013-12-27 04:13:00,44.2,30.4,30.11,South,180,1.0,4.0,58,0.00,,,0.00,meteohub,2013-12-27 12:13:00,
2013-12-27 04:18:00,44.2,30.4,30.12,East,90,2.0,4.0,58,0.00,,,0.00,meteohub,2013-12-27 12:18:00,
2013-12-27 04:23:00,43.9,30.6,30.12,NE,45,2.0,4.0,59,0.00,,,0.00,meteohub,2013-12-27 12:23:00,
2013-12-27 04:28:00,43.5,30.6,30.12,NE,45,2.0,3.0,60,0.00,,,0.00,meteohub,2013-12-27 12:28:00,
2013-12-27 04:33:00,43.5,30.6,30.11,NE,45,3.0,3.0,60,0.00,,,0.00,meteohub,2013-12-27 12:33:00,
2013-12-27 04:38:00,43.9,29.7,30.11,East,90,3.0,4.0,57,0.00,,,0.00,meteohub,2013-12-27 12:38:00,
2013-12-27 04:43:00,43.9,29.7,30.11,East,90,3.0,4.0,57,0.00,,,0.00,meteohub,2013-12-27 12:43:00,
2013-12-27 04:48:00,43.5,29.7,30.11,East,90,3.0,4.0,58,0.00,,,0.00,meteohub,2013-12-27 12:48:00,
2013-12-27 04:53:00,43.3,29.5,30.11,East,90,2.0,3.0,58,0.00,,,0.00,meteohub,2013-12-27 12:53:00,
2013-12-27 04:58:00,42.8,29.5,30.12,East,90,2.0,3.0,59,0.00,,,0.00,meteohub,2013-12-27 12:58:00,
2013-12-27 05:03:00,42.4,29.5,30.12,East,90,1.0,3.0,60,0.00,,,0.00,meteohub,2013-12-27 13:03:00,
2013-12-27 05:08:00,42.1,29.7,30.12,East,90,2.0,3.0,61,0.00,,,0.00,meteohub,2013-12-27 13:08:00,
2013-12-27 05:13:00,42.3,30.2,30.12,NE,45,2.0,2.0,62,0.00,,,0.00,meteohub,2013-12-27 13:13:00,
2013-12-27 05:18:00,43.2,29.8,30.12,NE,45,2.0,4.0,59,0.00,,,0.00,meteohub,2013-12-27 13:18:00,
2013-12-27 05:23:00,43.7,29.5,30.12,NE,45,1.0,4.0,57,0.00,,,0.00,meteohub,2013-12-27 13:23:00,
2013-12-27 05:28:00,43.9,29.1,30.12,NE,45,2.0,4.0,56,0.00,,,0.00,meteohub,2013-12-27 13:28:00,
2013-12-27 05:33:00,44.2,29.1,30.11,NE,45,3.0,3.0,55,0.00,,,0.00,meteohub,2013-12-27 13:33:00,
2013-12-27 05:38:00,44.4,28.8,30.11,NE,45,2.0,3.0,54,0.00,,,0.00,meteohub,2013-12-27 13:38:00,
2013-12-27 05:43:00,44.4,28.8,30.12,NE,45,2.0,4.0,54,0.00,,,0.00,meteohub,2013-12-27 13:43:00,
2013-12-27 05:48:00,44.2,29.1,30.12,NNE,23,3.0,4.0,55,0.00,,,0.00,meteohub,2013-12-27 13:48:00,
2013-12-27 05:53:00,43.7,29.1,30.12,NE,45,2.0,3.0,56,0.00,,,0.00,meteohub,2013-12-27 13:53:00,
2013-12-27 05:58:00,43.9,28.8,30.12,North,0,4.0,4.0,55,0.00,,,0.00,meteohub,2013-12-27 13:58:00,
2013-12-27 06:03:00,44.4,27.9,30.12,NE,45,4.0,5.0,52,0.00,,,0.00,meteohub,2013-12-27 14:03:00,
2013-12-27 06:08:00,44.6,28.0,30.12,East,90,2.0,5.0,52,0.00,,,0.00,meteohub,2013-12-27 14:08:00,
2013-12-27 06:13:00,44.4,27.5,30.12,East,90,2.0,4.0,51,0.00,,,0.00,meteohub,2013-12-27 14:13:00,
2013-12-27 06:18:00,43.7,27.1,30.13,ENE,68,2.0,4.0,52,0.00,,,0.00,meteohub,2013-12-27 14:18:00,
2013-12-27 06:23:00,43.3,27.0,30.13,ENE,68,0.0,4.0,52,0.00,,,0.00,meteohub,2013-12-27 14:23:00,
2013-12-27 06:28:00,42.6,27.5,30.13,ENE,68,2.0,4.0,55,0.00,,,0.00,meteohub,2013-12-27 14:28:00,
2013-12-27 06:33:00,42.6,28.4,30.13,NE,45,2.0,2.0,57,0.00,,,0.00,meteohub,2013-12-27 14:33:00,
2013-12-27 06:38:00,42.4,27.9,30.13,NE,45,2.0,2.0,56,0.00,,,0.00,meteohub,2013-12-27 14:38:00,
2013-12-27 06:43:00,42.6,28.4,30.13,NE,45,0.0,2.0,57,0.00,,,0.00,meteohub,2013-12-27 14:43:00,
2013-12-27 06:48:00,42.4,28.2,30.13,NE,45,0.0,2.0,57,0.00,,,0.00,meteohub,2013-12-27 14:48:00,
2013-12-27 06:53:00,42.3,28.9,30.13,NE,45,2.0,2.0,59,0.00,,,0.00,meteohub,2013-12-27 14:53:00,
2013-12-27 06:58:00,42.3,28.6,30.13,NE,45,1.0,2.0,58,0.00,,,0.00,meteohub,2013-12-27 14:58:00,
2013-12-27 07:03:00,42.1,29.1,30.13,NE,45,0.0,2.0,60,0.00,,,0.00,meteohub,2013-12-27 15:03:00,
2013-12-27 07:08:00,41.7,29.3,30.13,NE,45,0.0,2.0,61,0.00,,,0.00,meteohub,2013-12-27 15:08:00,
2013-12-27 07:13:00,41.9,30.6,30.13,South,180,2.0,2.0,64,0.00,,,0.00,meteohub,2013-12-27 15:13:00,
2013-12-27 07:18:00,42.3,30.6,30.13,South,180,1.0,2.0,63,0.00,,,0.00,meteohub,2013-12-27 15:18:00,
2013-12-27 07:23:00,42.3,30.6,30.13,South,180,2.0,2.0,63,0.00,,,0.00,meteohub,2013-12-27 15:23:00,
2013-12-27 07:28:00,42.4,30.7,30.14,South,180,0.0,2.0,63,0.00,,,0.00,meteohub,2013-12-27 15:28:00,
2013-12-27 07:33:00,42.4,30.7,30.14,South,180,1.0,2.0,63,0.00,,,0.00,meteohub,2013-12-27 15:33:00,
2013-12-27 07:38:00,42.8,31.5,30.13,South,180,0.0,2.0,64,0.00,,,0.00,meteohub,2013-12-27 15:38:00,
2013-12-27 07:43:00,43.2,31.5,30.14,ENE,68,0.0,2.0,63,0.00,,,0.00,meteohub,2013-12-27 15:43:00,
2013-12-27 07:48:00,43.3,31.3,30.14,ENE,68,0.0,2.0,62,0.00,,,0.00,meteohub,2013-12-27 15:48:00,
2013-12-27 07:53:00,44.1,31.1,30.14,East,90,2.0,2.0,60,0.00,,,0.00,meteohub,2013-12-27 15:53:00,
2013-12-27 07:58:00,45.5,28.9,30.14,North,0,4.0,4.0,52,0.00,,,0.00,meteohub,2013-12-27 15:58:00,
2013-12-27 08:03:00,46.8,29.1,30.14,NE,45,2.0,4.0,50,0.00,,,0.00,meteohub,2013-12-27 16:03:00,
2013-12-27 08:08:00,47.5,30.2,30.14,NE,45,2.0,4.0,51,0.00,,,0.00,meteohub,2013-12-27 16:08:00,
2013-12-27 08:13:00,48.2,30.4,30.14,NE,45,1.0,4.0,50,0.00,,,0.00,meteohub,2013-12-27 16:13:00,
2013-12-27 08:18:00,49.1,30.7,30.15,NE,45,1.0,2.0,49,0.00,,,0.00,meteohub,2013-12-27 16:18:00,
2013-12-27 08:23:00,50.5,28.9,30.15,NE,45,2.0,2.0,43,0.00,,,0.00,meteohub,2013-12-27 16:23:00,
2013-12-27 08:28:00,51.4,27.9,30.15,NE,45,2.0,2.0,40,0.00,,,0.00,meteohub,2013-12-27 16:28:00,
2013-12-27 08:33:00,52.3,28.0,30.15,NE,45,2.0,2.0,39,0.00,,,0.00,meteohub,2013-12-27 16:33:00,
2013-12-27 08:38:00,53.2,28.2,30.15,NE,45,2.0,3.0,38,0.00,,,0.00,meteohub,2013-12-27 16:38:00,
2013-12-27 08:43:00,54.0,28.2,30.15,East,90,2.0,3.0,37,0.00,,,0.00,meteohub,2013-12-27 16:43:00,
2013-12-27 08:48:00,54.9,26.2,30.15,SE,135,2.0,3.0,33,0.00,,,0.00,meteohub,2013-12-27 16:48:00,
2013-12-27 08:53:00,55.8,26.4,30.15,ESE,113,2.0,3.0,32,0.00,,,0.00,meteohub,2013-12-27 16:53:00,
2013-12-27 08:58:00,57.0,25.9,30.15,NE,45,2.0,3.0,30,0.00,,,0.00,meteohub,2013-12-27 16:58:00,
2013-12-27 09:03:00,58.1,26.8,30.15,NE,45,2.0,3.0,30,0.00,,,0.00,meteohub,2013-12-27 17:03:00,
2013-12-27 09:08:00,59.2,26.1,30.15,NE,45,3.0,3.0,28,0.00,,,0.00,meteohub,2013-12-27 17:08:00,
2013-12-27 09:13:00,60.1,26.1,30.16,North,0,2.0,4.0,27,0.00,,,0.00,meteohub,2013-12-27 17:13:00,
2013-12-27 09:18:00,61.2,24.1,30.16,North,0,2.0,4.0,24,0.00,,,0.00,meteohub,2013-12-27 17:18:00,
2013-12-27 09:23:00,61.9,23.7,30.16,NW,315,2.0,4.0,23,0.00,,,0.00,meteohub,2013-12-27 17:23:00,
2013-12-27 09:28:00,62.6,22.1,30.16,North,0,3.0,4.0,21,0.00,,,0.00,meteohub,2013-12-27 17:28:00,
2013-12-27 09:33:00,63.3,21.6,30.16,NE,45,5.0,5.0,20,0.00,,,0.00,meteohub,2013-12-27 17:33:00,
2013-12-27 09:38:00,63.7,23.0,30.16,North,0,4.0,5.0,21,0.00,,,0.00,meteohub,2013-12-27 17:38:00,
2013-12-27 09:43:00,64.8,22.8,30.16,North,0,2.0,5.0,20,0.00,,,0.00,meteohub,2013-12-27 17:43:00,
2013-12-27 09:48:00,65.5,24.4,30.16,NE,45,1.0,5.0,21,0.00,,,0.00,meteohub,2013-12-27 17:48:00,
2013-12-27 09:53:00,65.7,23.5,30.15,East,90,3.0,4.0,20,0.00,,,0.00,meteohub,2013-12-27 17:53:00,
2013-12-27 09:58:00,66.4,24.1,30.15,South,180,2.0,4.0,20,0.00,,,0.00,meteohub,2013-12-27 17:58:00,
2013-12-27 10:03:00,67.8,25.3,30.15,North,0,2.0,4.0,20,0.00,,,0.00,meteohub,2013-12-27 18:03:00,
2013-12-27 10:08:00,68.5,24.6,30.15,West,270,1.0,4.0,19,0.00,,,0.00,meteohub,2013-12-27 18:08:00,
2013-12-27 10:13:00,68.9,23.7,30.15,North,0,2.0,3.0,18,0.00,,,0.00,meteohub,2013-12-27 18:13:00,
2013-12-27 10:18:00,70.0,24.4,30.15,North,0,2.0,4.0,18,0.00,,,0.00,meteohub,2013-12-27 18:18:00,
2013-12-27 10:23:00,71.2,24.3,30.14,West,270,2.0,4.0,17,0.00,,,0.00,meteohub,2013-12-27 18:23:00,
2013-12-27 10:29:00,71.8,21.6,30.14,NW,315,3.0,4.0,15,0.00,,,0.00,meteohub,2013-12-27 18:29:00,
2013-12-27 10:33:00,71.8,21.6,30.14,West,270,3.0,4.0,15,0.00,,,0.00,meteohub,2013-12-27 18:33:00,
2013-12-27 10:39:00,73.2,22.8,30.14,WNW,293,2.0,4.0,15,0.00,,,0.00,meteohub,2013-12-27 18:39:00,
2013-12-27 10:44:00,74.7,22.3,30.13,North,0,2.0,4.0,14,0.00,,,0.00,meteohub,2013-12-27 18:44:00,
2013-12-27 10:49:00,75.6,21.2,30.13,West,270,1.0,3.0,13,0.00,,,0.00,meteohub,2013-12-27 18:49:00,
2013-12-27 10:54:00,76.3,18.0,30.13,NW,315,2.0,3.0,11,0.00,,,0.00,meteohub,2013-12-27 18:54:00,
2013-12-27 10:59:00,77.9,19.2,30.13,NW,315,2.0,3.0,11,0.00,,,0.00,meteohub,2013-12-27 18:59:00,
2013-12-27 11:04:00,78.8,78.8,30.12,West,270,2.0,3.0,0,0.00,,,0.00,meteohub,2013-12-27 19:04:00,
2013-12-27 11:09:00,79.0,79.0,30.12,WNW,293,2.0,3.0,0,0.00,,,0.00,meteohub,2013-12-27 19:09:00,
2013-12-27 11:14:00,79.7,79.7,30.12,North,0,2.0,3.0,0,0.00,,,0.00,meteohub,2013-12-27 19:14:00,
2013-12-27 11:19:00,80.1,80.1,30.12,NW,315,4.0,4.0,0,0.00,,,0.00,meteohub,2013-12-27 19:19:00,
2013-12-27 11:24:00,80.2,80.2,30.12,NE,45,2.0,3.0,0,0.00,,,0.00,meteohub,2013-12-27 19:24:00,
2013-12-27 11:29:00,81.7,81.7,30.11,WNW,293,2.0,4.0,0,0.00,,,0.00,meteohub,2013-12-27 19:29:00,
2013-12-27 11:34:00,83.7,83.7,30.11,North,0,4.0,4.0,0,0.00,,,0.00,meteohub,2013-12-27 19:34:00,
2013-12-27 11:39:00,84.7,84.7,30.11,NE,45,2.0,4.0,0,0.00,,,0.00,meteohub,2013-12-27 19:39:00,
2013-12-27 11:44:00,85.6,85.6,30.10,NE,45,2.0,4.0,0,0.00,,,0.00,meteohub,2013-12-27 19:44:00,
2013-12-27 11:49:00,86.7,86.7,30.10,North,0,4.0,4.0,0,0.00,,,0.00,meteohub,2013-12-27 19:49:00,
2013-12-27 11:54:00,86.5,86.5,30.10,NE,45,5.0,5.0,0,0.00,,,0.00,meteohub,2013-12-27 19:54:00,
2013-12-27 11:59:00,86.4,86.4,30.10,NE,45,2.0,5.0,0,0.00,,,0.00,meteohub,2013-12-27 19:59:00,
2013-12-27 12:04:00,86.0,86.0,30.09,NNE,23,4.0,6.0,0,0.00,,,0.00,meteohub,2013-12-27 20:04:00,
2013-12-27 12:09:00,86.4,86.4,30.09,NE,45,4.0,6.0,0,0.00,,,0.00,meteohub,2013-12-27 20:09:00,
2013-12-27 12:14:00,87.4,87.4,30.09,North,0,3.0,6.0,0,0.00,,,0.00,meteohub,2013-12-27 20:14:00,
2013-12-27 12:19:00,87.4,87.4,30.09,NE,45,3.0,6.0,0,0.00,,,0.00,meteohub,2013-12-27 20:19:00,
2013-12-27 12:24:00,87.8,87.8,30.09,East,90,2.0,4.0,0,0.00,,,0.00,meteohub,2013-12-27 20:24:00,
2013-12-27 12:29:00,88.2,88.2,30.08,NE,45,2.0,4.0,0,0.00,,,0.00,meteohub,2013-12-27 20:29:00,
2013-12-27 12:34:00,88.3,88.3,30.08,North,0,4.0,4.0,0,0.00,,,0.00,meteohub,2013-12-27 20:34:00,
2013-12-27 12:39:00,87.6,87.6,30.08,North,0,4.0,4.0,0,0.00,,,0.00,meteohub,2013-12-27 20:39:00,
2013-12-27 12:44:00,86.7,86.7,30.08,West,270,5.0,5.0,0,0.00,,,0.00,meteohub,2013-12-27 20:44:00,
2013-12-27 12:49:00,85.6,85.6,30.07,NW,315,3.0,6.0,0,0.00,,,0.00,meteohub,2013-12-27 20:49:00,
2013-12-27 12:54:00,85.8,85.8,30.07,NW,315,3.0,6.0,0,0.00,,,0.00,meteohub,2013-12-27 20:54:00,
2013-12-27 12:59:00,85.8,85.8,30.07,North,0,4.0,6.0,0,0.00,,,0.00,meteohub,2013-12-27 20:59:00,
2013-12-27 13:04:00,85.6,85.6,30.07,North,0,2.0,4.0,0,0.00,,,0.00,meteohub,2013-12-27 21:04:00,
2013-12-27 13:09:00,85.5,85.5,30.07,West,270,3.0,5.0,0,0.00,,,0.00,meteohub,2013-12-27 21:09:00,
2013-12-27 13:14:00,83.7,83.7,30.06,NW,315,7.0,7.0,0,0.00,,,0.00,meteohub,2013-12-27 21:14:00,
2013-12-27 13:19:00,81.0,25.5,30.06,WNW,293,7.0,8.0,13,0.00,,,0.00,meteohub,2013-12-27 21:19:00,
2013-12-27 13:24:00,79.2,25.9,30.06,West,270,6.0,11.0,14,0.00,,,0.00,meteohub,2013-12-27 21:24:00,
2013-12-27 13:29:00,78.4,28.6,30.06,NW,315,7.0,11.0,16,0.00,,,0.00,meteohub,2013-12-27 21:29:00,
2013-12-27 13:34:00,78.6,30.2,30.06,NW,315,7.0,11.0,17,0.00,,,0.00,meteohub,2013-12-27 21:34:00,
2013-12-27 13:39:00,79.0,30.4,30.06,NW,315,3.0,10.0,17,0.00,,,0.00,meteohub,2013-12-27 21:39:00,
2013-12-27 13:44:00,79.0,31.8,30.06,West,270,7.0,10.0,18,0.00,,,0.00,meteohub,2013-12-27 21:44:00,
2013-12-27 13:49:00,78.6,23.7,30.06,West,270,9.0,9.0,13,0.00,,,0.00,meteohub,2013-12-27 21:49:00,
2013-12-27 13:54:00,78.4,23.5,30.06,WNW,293,8.0,8.0,13,0.00,,,0.00,meteohub,2013-12-27 21:54:00,
2013-12-27 13:59:00,77.7,21.0,30.06,NW,315,11.0,11.0,12,0.00,,,0.00,meteohub,2013-12-27 21:59:00,
2013-12-27 14:04:00,77.7,21.0,30.06,NW,315,8.0,11.0,12,0.00,,,0.00,meteohub,2013-12-27 22:04:00,
2013-12-27 14:09:00,78.1,19.2,30.05,NW,315,6.0,11.0,11,0.00,,,0.00,meteohub,2013-12-27 22:09:00,
2013-12-27 14:14:00,78.8,21.9,30.06,NW,315,5.0,11.0,12,0.00,,,0.00,meteohub,2013-12-27 22:14:00,
2013-12-27 14:19:00,78.6,78.6,30.05,NW,315,8.0,9.0,0,0.00,,,0.00,meteohub,2013-12-27 22:19:00,
2013-12-27 14:24:00,78.3,78.3,30.05,NW,315,7.0,9.0,0,0.00,,,0.00,meteohub,2013-12-27 22:24:00,
2013-12-27 14:29:00,79.0,19.9,30.05,NW,315,6.0,10.0,11,0.00,,,0.00,meteohub,2013-12-27 22:29:00,
2013-12-27 14:34:00,79.3,18.0,30.05,NW,315,6.0,10.0,10,0.00,,,0.00,meteohub,2013-12-27 22:34:00,
2013-12-27 14:39:00,79.3,18.0,30.06,West,270,7.0,10.0,10,0.00,,,0.00,meteohub,2013-12-27 22:39:00,
2013-12-27 14:44:00,79.5,18.1,30.05,NW,315,5.0,8.0,10,0.00,,,0.00,meteohub,2013-12-27 22:44:00,
2013-12-27 14:49:00,79.7,79.7,30.05,West,270,8.0,8.0,0,0.00,,,0.00,meteohub,2013-12-27 22:49:00,
2013-12-27 14:54:00,80.1,80.1,30.05,West,270,5.0,8.0,0,0.00,,,0.00,meteohub,2013-12-27 22:54:00,
2013-12-27 14:59:00,80.2,80.2,30.05,NW,315,8.0,8.0,0,0.00,,,0.00,meteohub,2013-12-27 22:59:00,
2013-12-27 15:04:00,79.5,79.5,30.05,NW,315,7.0,8.0,0,0.00,,,0.00,meteohub,2013-12-27 23:04:00,
2013-12-27 15:09:00,78.4,78.4,30.05,NW,315,6.0,8.0,0,0.00,,,0.00,meteohub,2013-12-27 23:09:00,
2013-12-27 15:14:00,78.3,19.4,30.05,NW,315,3.0,9.0,11,0.00,,,0.00,meteohub,2013-12-27 23:14:00,
2013-12-27 15:20:00,78.6,21.7,30.05,NW,315,2.0,9.0,12,0.00,,,0.00,meteohub,2013-12-27 23:20:00,
2013-12-27 15:25:00,79.3,22.3,30.05,NW,315,4.0,8.0,12,0.00,,,0.00,meteohub,2013-12-27 23:25:00,
2013-12-27 15:30:00,79.5,22.5,30.05,West,270,3.0,6.0,12,0.00,,,0.00,meteohub,2013-12-27 23:30:00,
2013-12-27 15:35:00,79.2,22.1,30.04,NW,315,3.0,4.0,12,0.00,,,0.00,meteohub,2013-12-27 23:35:00,
2013-12-27 15:40:00,78.8,17.6,30.04,SW,225,4.0,4.0,10,0.00,,,0.00,meteohub,2013-12-27 23:40:00,
2013-12-27 15:45:00,78.4,78.4,30.04,NW,315,6.0,6.0,0,0.00,,,0.00,meteohub,2013-12-27 23:45:00,
2013-12-27 15:50:00,77.9,77.9,30.04,NW,315,4.0,6.0,0,0.00,,,0.00,meteohub,2013-12-27 23:50:00,
2013-12-27 15:55:00,76.8,16.2,30.04,NW,315,4.0,6.0,10,0.00,,,0.00,meteohub,2013-12-27 23:55:00,
2013-12-27 16:00:00,75.9,17.6,30.04,NW,315,4.0,6.0,11,0.00,,,0.00,meteohub,2013-12-28 00:00:00,
2013-12-27 16:05:00,75.7,24.8,30.04,NW,315,4.0,6.0,15,0.00,,,0.00,meteohub,2013-12-28 00:05:00,
2013-12-27 16:10:00,75.9,25.0,30.04,West,270,4.0,6.0,15,0.00,,,0.00,meteohub,2013-12-28 00:10:00,
2013-12-27 16:15:00,75.9,26.4,30.04,West,270,4.0,5.0,16,0.00,,,0.00,meteohub,2013-12-28 00:15:00,
2013-12-27 16:20:00,74.7,25.5,30.04,West,270,4.0,5.0,16,0.00,,,0.00,meteohub,2013-12-28 00:20:00,
2013-12-27 16:25:00,73.8,26.2,30.04,WNW,293,3.0,4.0,17,0.00,,,0.00,meteohub,2013-12-28 00:25:00,
2013-12-27 16:30:00,72.7,28.0,30.04,NW,315,3.0,4.0,19,0.00,,,0.00,meteohub,2013-12-28 00:30:00,
2013-12-27 16:35:00,71.8,28.6,30.04,NW,315,4.0,4.0,20,0.00,,,0.00,meteohub,2013-12-28 00:35:00,
2013-12-27 16:40:00,70.9,30.2,30.04,NW,315,3.0,4.0,22,0.00,,,0.00,meteohub,2013-12-28 00:40:00,
2013-12-27 16:45:00,70.2,30.6,30.04,NW,315,3.0,4.0,23,0.00,,,0.00,meteohub,2013-12-28 00:45:00,
2013-12-27 16:50:00,69.8,30.4,30.04,NW,315,1.0,4.0,23,0.00,,,0.00,meteohub,2013-12-28 00:50:00,
2013-12-27 16:55:00,68.7,30.4,30.04,NW,315,0.0,4.0,24,0.00,,,0.00,meteohub,2013-12-28 00:55:00,
2013-12-27 17:00:00,67.5,32.4,30.04,NW,315,0.0,3.0,27,0.00,,,0.00,meteohub,2013-12-28 01:00:00,
2013-12-27 17:05:00,66.2,33.1,30.04,NW,315,0.0,3.0,29,0.00,,,0.00,meteohub,2013-12-28 01:05:00,
2013-12-27 17:07:00,66.0,33.6,30.04,NW,315,0.0,1.0,30,0.00,,,0.00,meteohub,2013-12-28 01:07:00,
2013-12-27 17:12:00,65.1,33.8,30.04,NW,315,2.0,2.0,31,0.00,,,0.00,meteohub,2013-12-28 01:12:00,
2013-12-27 17:17:00,64.8,34.2,30.05,North,0,2.0,2.0,32,0.00,,,0.00,meteohub,2013-12-28 01:17:00,
2013-12-27 17:22:00,64.6,32.4,30.05,NE,45,3.0,3.0,30,0.00,,,0.00,meteohub,2013-12-28 01:22:00,
2013-12-27 17:27:00,64.2,30.4,30.05,SE,135,2.0,3.0,28,0.00,,,0.00,meteohub,2013-12-28 01:27:00,
2013-12-27 17:32:00,63.9,27.3,30.04,South,180,2.0,3.0,25,0.00,,,0.00,meteohub,2013-12-28 01:32:00,
2013-12-27 17:37:00,63.7,27.1,30.05,South,180,2.0,3.0,25,0.00,,,0.00,meteohub,2013-12-28 01:37:00,
2013-12-27 17:42:00,63.5,25.0,30.05,South,180,2.0,2.0,23,0.00,,,0.00,meteohub,2013-12-28 01:42:00,
2013-12-27 17:47:00,63.3,23.9,30.05,South,180,0.0,2.0,22,0.00,,,0.00,meteohub,2013-12-28 01:47:00,
2013-12-27 17:52:00,63.0,25.5,30.05,South,180,0.0,2.0,24,0.00,,,0.00,meteohub,2013-12-28 01:52:00,
2013-12-27 17:57:00,62.6,25.3,30.05,South,180,0.0,2.0,24,0.00,,,0.00,meteohub,2013-12-28 01:57:00,
2013-12-27 18:02:00,62.1,25.9,30.06,South,180,0.0,2.0,25,0.00,,,0.00,meteohub,2013-12-28 02:02:00,
2013-12-27 18:07:00,61.5,23.4,30.06,South,180,0.0,0.0,23,0.00,,,0.00,meteohub,2013-12-28 02:07:00,
2013-12-27 18:12:00,61.2,23.0,30.06,South,180,0.0,0.0,23,0.00,,,0.00,meteohub,2013-12-28 02:12:00,
2013-12-27 18:17:00,61.2,23.0,30.06,South,180,0.0,0.0,23,0.00,,,0.00,meteohub,2013-12-28 02:17:00,
2013-12-27 18:22:00,61.3,22.1,30.06,East,90,1.0,2.0,22,0.00,,,0.00,meteohub,2013-12-28 02:22:00,
2013-12-27 18:27:00,60.8,21.7,30.06,East,90,0.0,2.0,22,0.00,,,0.00,meteohub,2013-12-28 02:27:00,
2013-12-27 18:32:00,60.8,22.8,30.06,East,90,1.0,2.0,23,0.00,,,0.00,meteohub,2013-12-28 02:32:00,
2013-12-27 18:37:00,60.6,24.6,30.06,East,90,0.0,2.0,25,0.00,,,0.00,meteohub,2013-12-28 02:37:00,
2013-12-27 18:42:00,60.1,24.1,30.07,East,90,0.0,2.0,25,0.00,,,0.00,meteohub,2013-12-28 02:42:00,
2013-12-27 18:47:00,59.2,26.1,30.06,East,90,2.0,2.0,28,0.00,,,0.00,meteohub,2013-12-28 02:47:00,
2013-12-27 18:52:00,58.6,25.7,30.06,East,90,0.0,2.0,28,0.00,,,0.00,meteohub,2013-12-28 02:52:00,
2013-12-27 18:57:00,58.1,26.1,30.06,East,90,0.0,2.0,29,0.00,,,0.00,meteohub,2013-12-28 02:57:00,
2013-12-27 19:02:00,57.9,25.9,30.07,East,90,0.0,2.0,29,0.00,,,0.00,meteohub,2013-12-28 03:02:00,
2013-12-27 19:07:00,58.6,26.4,30.06,East,90,1.0,1.0,29,0.00,,,0.00,meteohub,2013-12-28 03:07:00,
2013-12-27 19:12:00,58.6,25.7,30.06,East,90,1.0,1.0,28,0.00,,,0.00,meteohub,2013-12-28 03:12:00,
2013-12-27 19:17:00,58.3,25.3,30.06,East,90,0.0,2.0,28,0.00,,,0.00,meteohub,2013-12-28 03:17:00,
2013-12-27 19:22:00,57.6,24.6,30.07,East,90,0.0,2.0,28,0.00,,,0.00,meteohub,2013-12-28 03:22:00,
2013-12-27 19:27:00,57.9,25.9,30.07,East,90,0.0,2.0,29,0.00,,,0.00,meteohub,2013-12-28 03:27:00,
2013-12-27 19:32:00,58.3,27.0,30.07,East,90,0.0,2.0,30,0.00,,,0.00,meteohub,2013-12-28 03:32:00,
2013-12-27 19:37:00,57.9,27.5,30.07,East,90,1.0,2.0,31,0.00,,,0.00,meteohub,2013-12-28 03:37:00,
2013-12-27 19:42:00,57.7,27.3,30.07,East,90,2.0,2.0,31,0.00,,,0.00,meteohub,2013-12-28 03:42:00,
2013-12-27 19:47:00,57.2,26.8,30.07,East,90,0.0,2.0,31,0.00,,,0.00,meteohub,2013-12-28 03:47:00,
2013-12-27 19:52:00,56.8,28.0,30.07,East,90,1.0,2.0,33,0.00,,,0.00,meteohub,2013-12-28 03:52:00,
2013-12-27 19:57:00,56.5,27.7,30.07,East,90,1.0,2.0,33,0.00,,,0.00,meteohub,2013-12-28 03:57:00,
2013-12-27 20:02:00,55.9,28.0,30.07,East,90,0.0,1.0,34,0.00,,,0.00,meteohub,2013-12-28 04:02:00,
2013-12-27 20:07:00,56.1,28.8,30.07,East,90,0.0,1.0,35,0.00,,,0.00,meteohub,2013-12-28 04:07:00,
2013-12-27 20:12:00,56.7,30.0,30.07,East,90,1.0,1.0,36,0.00,,,0.00,meteohub,2013-12-28 04:12:00,
2013-12-27 20:17:00,57.7,30.2,30.06,South,180,2.0,2.0,35,0.00,,,0.00,meteohub,2013-12-28 04:17:00,
2013-12-27 20:22:00,58.1,30.6,30.06,South,180,1.0,2.0,35,0.00,,,0.00,meteohub,2013-12-28 04:22:00,
2013-12-27 20:27:00,57.9,31.8,30.05,South,180,2.0,2.0,37,0.00,,,0.00,meteohub,2013-12-28 04:27:00,
2013-12-27 20:31:00,57.6,31.5,30.05,South,180,0.0,2.0,37,0.00,,,0.00,meteohub,2013-12-28 04:31:00,
2013-12-27 20:37:00,57.0,32.4,30.05,South,180,1.0,2.0,39,0.00,,,0.00,meteohub,2013-12-28 04:37:00,
2013-12-27 20:42:00,57.0,35.2,30.06,South,180,0.0,2.0,44,0.00,,,0.00,meteohub,2013-12-28 04:42:00,
2013-12-27 20:47:00,57.2,35.4,30.06,South,180,0.0,1.0,44,0.00,,,0.00,meteohub,2013-12-28 04:47:00,
2013-12-27 20:52:00,56.8,35.8,30.06,South,180,1.0,1.0,45,0.00,,,0.00,meteohub,2013-12-28 04:52:00,
2013-12-27 20:57:00,56.3,35.8,30.06,East,90,1.0,2.0,46,0.00,,,0.00,meteohub,2013-12-28 04:57:00,
2013-12-27 21:01:00,55.6,35.1,30.06,East,90,0.0,2.0,46,0.00,,,0.00,meteohub,2013-12-28 05:01:00,
2013-12-27 21:02:00,55.4,34.9,30.06,East,90,0.0,2.0,46,0.00,,,0.00,meteohub,2013-12-28 05:02:00,
2013-12-27 21:07:00,54.9,37.0,30.06,East,90,0.0,2.0,51,0.00,,,0.00,meteohub,2013-12-28 05:07:00,
2013-12-27 21:12:00,54.7,38.3,30.06,East,90,0.0,1.0,54,0.00,,,0.00,meteohub,2013-12-28 05:12:00,
2013-12-27 21:17:00,54.3,37.9,30.07,East,90,0.0,0.0,54,0.00,,,0.00,meteohub,2013-12-28 05:17:00,
2013-12-27 21:22:00,54.0,37.8,30.07,East,90,0.0,0.0,54,0.00,,,0.00,meteohub,2013-12-28 05:22:00,
2013-12-27 21:27:00,53.6,37.4,30.07,East,90,0.0,0.0,54,0.00,,,0.00,meteohub,2013-12-28 05:27:00,
2013-12-27 21:32:00,53.2,37.4,30.07,East,90,0.0,1.0,55,0.00,,,0.00,meteohub,2013-12-28 05:32:00,
2013-12-27 21:37:00,53.4,38.1,30.07,East,90,0.0,1.0,56,0.00,,,0.00,meteohub,2013-12-28 05:37:00,
2013-12-27 21:42:00,53.6,38.3,30.07,East,90,0.0,1.0,56,0.00,,,0.00,meteohub,2013-12-28 05:42:00,
2013-12-27 21:47:00,53.2,37.9,30.07,East,90,0.0,0.0,56,0.00,,,0.00,meteohub,2013-12-28 05:47:00,
2013-12-27 21:52:00,53.4,38.5,30.07,East,90,0.0,0.0,57,0.00,,,0.00,meteohub,2013-12-28 05:52:00,
2013-12-27 21:57:00,53.1,37.4,30.07,East,90,0.0,0.0,55,0.00,,,0.00,meteohub,2013-12-28 05:57:00,
2013-12-27 22:02:00,52.9,38.1,30.07,East,90,0.0,0.0,57,0.00,,,0.00,meteohub,2013-12-28 06:02:00,
2013-12-27 22:07:00,53.2,39.2,30.07,East,90,0.0,1.0,59,0.00,,,0.00,meteohub,2013-12-28 06:07:00,
2013-12-27 22:12:00,53.4,39.4,30.07,East,90,1.0,1.0,59,0.00,,,0.00,meteohub,2013-12-28 06:12:00,
2013-12-27 22:17:00,53.2,39.7,30.07,East,90,2.0,2.0,60,0.00,,,0.00,meteohub,2013-12-28 06:17:00,
2013-12-27 22:22:00,53.1,39.2,30.07,East,90,0.0,2.0,59,0.00,,,0.00,meteohub,2013-12-28 06:22:00,
2013-12-27 22:27:00,52.9,39.7,30.07,East,90,2.0,2.0,61,0.00,,,0.00,meteohub,2013-12-28 06:27:00,
2013-12-27 22:32:00,52.9,39.4,30.07,East,90,0.0,2.0,60,0.00,,,0.00,meteohub,2013-12-28 06:32:00,
2013-12-27 22:37:00,52.5,39.0,30.07,East,90,1.0,2.0,60,0.00,,,0.00,meteohub,2013-12-28 06:37:00,
2013-12-27 22:42:00,52.3,38.5,30.07,East,90,0.0,2.0,59,0.00,,,0.00,meteohub,2013-12-28 06:42:00,
2013-12-27 22:47:00,52.3,38.8,30.07,East,90,0.0,2.0,60,0.00,,,0.00,meteohub,2013-12-28 06:47:00,
2013-12-27 22:52:00,52.2,38.7,30.06,East,90,0.0,1.0,60,0.00,,,0.00,meteohub,2013-12-28 06:52:00,
2013-12-27 22:57:00,51.8,38.8,30.06,East,90,0.0,0.0,61,0.00,,,0.00,meteohub,2013-12-28 06:57:00,
2013-12-27 23:02:00,51.8,38.8,30.06,East,90,0.0,0.0,61,0.00,,,0.00,meteohub,2013-12-28 07:02:00,
2013-12-27 23:07:00,51.4,39.2,30.06,East,90,0.0,0.0,63,0.00,,,0.00,meteohub,2013-12-28 07:07:00,
2013-12-27 23:12:00,51.4,40.1,30.06,East,90,0.0,0.0,65,0.00,,,0.00,meteohub,2013-12-28 07:12:00,
2013-12-27 23:17:00,51.4,40.5,30.06,East,90,0.0,0.0,66,0.00,,,0.00,meteohub,2013-12-28 07:17:00,
2013-12-27 23:22:00,51.4,40.1,30.06,East,90,0.0,0.0,65,0.00,,,0.00,meteohub,2013-12-28 07:22:00,
2013-12-27 23:27:00,51.1,39.7,30.06,East,90,0.0,0.0,65,0.00,,,0.00,meteohub,2013-12-28 07:27:00,
2013-12-27 23:32:00,50.7,39.7,30.06,East,90,0.0,0.0,66,0.00,,,0.00,meteohub,2013-12-28 07:32:00,
2013-12-27 23:37:00,50.9,40.3,30.06,East,90,0.0,0.0,67,0.00,,,0.00,meteohub,2013-12-28 07:37:00,
2013-12-27 23:42:00,50.9,40.3,30.05,East,90,0.0,0.0,67,0.00,,,0.00,meteohub,2013-12-28 07:42:00,
2013-12-27 23:47:00,50.7,40.5,30.05,East,90,0.0,0.0,68,0.00,,,0.00,meteohub,2013-12-28 07:47:00,
2013-12-27 23:52:00,50.9,40.6,30.05,East,90,0.0,0.0,68,0.00,,,0.00,meteohub,2013-12-28 07:52:00,
2013-12-27 23:57:00,51.1,41.2,30.05,East,90,0.0,0.0,69,0.00,,,0.00,meteohub,2013-12-28 07:57:00,